Nibulon 1 — UUAS4 — position and weather

sailwx.info

Track history (hours):
 
Tides and Currents Weather Stations Pressure Air Temp Water Temp Dewpoint Dewpoint Depression Visibility Wind Speed Wind Dir Waves Ship Positions

Nibulon 1

Last reported at 2016-Aug-29 12:32 UTC. Time now 2016-Aug-29 14:45 UTC.
Position N 48°02' E 035°08'.

Length 38 m; draft 2.6 m.

Type: Tug. MMSI: 272641000.

Date/timePositionNaut miles runAvg speedWind from/ knotsBaromVisibWave heightAir tempDewpointWater temp
2016-Aug-29 12:32N 48°02' E 035°08'5 5.0
2016-Aug-29 11:33N 47°57' E 035°07'4 4.4
2016-Aug-29 10:33N 47°53' E 035°06'1 1.0
2016-Aug-29 09:33N 47°52' E 035°06'4 3.8
2016-Aug-29 08:33N 47°49' E 035°09'2 2.3
2016-Aug-29 07:33N 47°50' E 035°06'3 2.7
2016-Aug-29 06:33N 47°53' E 035°06'1 1.0
2016-Aug-29 05:33N 47°52' E 035°05'0 0.2
2016-Aug-29 04:33N 47°52' E 035°05'4 4.1
2016-Aug-29 03:33N 47°49' E 035°09'0 0.1
2016-Aug-29 02:33N 47°49' E 035°09'0 0.1
2016-Aug-29 01:33N 47°48' E 035°09'0 0.0
2016-Aug-29 00:33N 47°49' E 035°09'0 0.0
2016-Aug-28 23:33N 47°49' E 035°09'4 3.8
2016-Aug-28 22:33N 47°45' E 035°10'4 4.3
2016-Aug-28 21:33N 47°41' E 035°08'5 4.5
2016-Aug-28 20:33N 47°37' E 035°03'4 4.4
2016-Aug-28 19:33N 47°34' E 034°59'5 4.9
2016-Aug-28 18:33N 47°33' E 034°52'127 3.8
2016-Aug-27 09:24N 46°32' E 032°08'4 4.9
2016-Aug-27 08:33N 46°32' E 032°02'5 5.0
2016-Aug-27 07:33N 46°34' E 031°55'5 4.9
2016-Aug-27 06:33N 46°35' E 031°48'9 4.3
2016-Aug-27 04:28N 46°36' E 031°35'0 0.1
2016-Aug-27 03:33N 46°36' E 031°35'1 1.1
2016-Aug-27 02:30N 46°35' E 031°34'4 4.7
2016-Aug-27 01:33N 46°35' E 031°28'6 5.7
2016-Aug-27 00:33N 46°34' E 031°19'4 0.8
2016-Aug-26 19:18N 46°34' E 031°13'0 0.1
2016-Aug-26 18:33N 46°34' E 031°13'0 0.0
2016-Aug-26 17:32N 46°34' E 031°13'1 1.3
2016-Aug-26 16:33N 46°34' E 031°15'21 1.7
2016-Aug-26 04:27N 46°35' E 031°45'3 3.5
2016-Aug-26 03:31N 46°35' E 031°50'3 3.4
2016-Aug-26 02:33N 46°34' E 031°55'3 3.3
2016-Aug-26 01:33N 46°33' E 031°59'  
2016-Aug-22 18:31N 46°36' E 032°35'11 3.7
2016-Aug-22 15:27N 46°33' E 032°19'4 4.1
2016-Aug-22 14:32N 46°33' E 032°14'5 4.9
2016-Aug-22 13:33N 46°32' E 032°07'5 4.8
2016-Aug-22 12:33N 46°33' E 032°00'5 4.8
2016-Aug-22 11:33N 46°34' E 031°53'5 4.9
2016-Aug-22 10:33N 46°36' E 031°46'5 5.0
2016-Aug-22 09:32N 46°35' E 031°39'3 0.7
2016-Aug-22 05:34N 46°36' E 031°35'4 4.3
2016-Aug-22 04:33N 46°36' E 031°29'5 5.2
2016-Aug-22 03:32N 46°35' E 031°21'3 3.4
2016-Aug-22 02:31N 46°34' E 031°16'0 0.0
2016-Aug-22 01:34N 46°34' E 031°16'1 0.8
2016-Aug-22 00:32N 46°34' E 031°17'4 3.6
2016-Aug-21 23:31N 46°35' E 031°22'7 3.6
2016-Aug-21 21:33N 46°35' E 031°33'3 0.2
2016-Aug-21 05:21N 46°37' E 031°35'0 0.1
2016-Aug-21 04:33N 46°37' E 031°35'0 0.0
2016-Aug-21 02:33N 46°37' E 031°35'3 3.2
2016-Aug-21 01:27N 46°35' E 031°31'4 4.2
2016-Aug-21 00:33N 46°35' E 031°25'5 5.3
2016-Aug-20 23:33N 46°35' E 031°17'12 0.7
2016-Aug-20 05:32N 46°36' E 031°35'0 0.0
2016-Aug-20 04:32N 46°36' E 031°35'0 0.1
2016-Aug-20 03:32N 46°36' E 031°35'1 0.5
2016-Aug-20 02:24N 46°36' E 031°35'0 0.0
2016-Aug-20 01:33N 46°36' E 031°35'0 0.0
2016-Aug-20 00:30N 46°36' E 031°35'0 0.0
2016-Aug-19 23:33N 46°36' E 031°35'7 3.3
2016-Aug-19 21:29N 46°35' E 031°25'  
Track history (hours):
 
Tides and Currents Weather Stations Pressure Air Temp Water Temp Dewpoint Dewpoint Depression Visibility Wind Speed Wind Dir Waves Ship Positions

Nibulon 1

Last reported at 2016-Aug-29 12:32 UTC. Time now 2016-Aug-29 14:45 UTC.
Position N 48°02' E 035°08'.

Length 38 m; draft 2.6 m.

Type: Tug. MMSI: 272641000.

Date/timePositionNaut miles runAvg speedWind from/ knotsBaromVisibWave heightAir tempDewpointWater temp
2016-Aug-29 12:32N 48°02' E 035°08'5 5.0
2016-Aug-29 11:33N 47°57' E 035°07'4 4.4
2016-Aug-29 10:33N 47°53' E 035°06'1 1.0
2016-Aug-29 09:33N 47°52' E 035°06'4 3.8
2016-Aug-29 08:33N 47°49' E 035°09'2 2.3
2016-Aug-29 07:33N 47°50' E 035°06'3 2.7
2016-Aug-29 06:33N 47°53' E 035°06'1 1.0
2016-Aug-29 05:33N 47°52' E 035°05'0 0.2
2016-Aug-29 04:33N 47°52' E 035°05'4 4.1
2016-Aug-29 03:33N 47°49' E 035°09'0 0.1
2016-Aug-29 02:33N 47°49' E 035°09'0 0.1
2016-Aug-29 01:33N 47°48' E 035°09'0 0.0
2016-Aug-29 00:33N 47°49' E 035°09'0 0.0
2016-Aug-28 23:33N 47°49' E 035°09'4 3.8
2016-Aug-28 22:33N 47°45' E 035°10'4 4.3
2016-Aug-28 21:33N 47°41' E 035°08'5 4.5
2016-Aug-28 20:33N 47°37' E 035°03'4 4.4
2016-Aug-28 19:33N 47°34' E 034°59'5 4.9
2016-Aug-28 18:33N 47°33' E 034°52'127 3.8
2016-Aug-27 09:24N 46°32' E 032°08'4 4.9
2016-Aug-27 08:33N 46°32' E 032°02'5 5.0
2016-Aug-27 07:33N 46°34' E 031°55'5 4.9
2016-Aug-27 06:33N 46°35' E 031°48'9 4.3
2016-Aug-27 04:28N 46°36' E 031°35'0 0.1
2016-Aug-27 03:33N 46°36' E 031°35'1 1.1
2016-Aug-27 02:30N 46°35' E 031°34'4 4.7
2016-Aug-27 01:33N 46°35' E 031°28'6 5.7
2016-Aug-27 00:33N 46°34' E 031°19'4 0.8
2016-Aug-26 19:18N 46°34' E 031°13'0 0.1
2016-Aug-26 18:33N 46°34' E 031°13'0 0.0
2016-Aug-26 17:32N 46°34' E 031°13'1 1.3
2016-Aug-26 16:33N 46°34' E 031°15'21 1.7
2016-Aug-26 04:27N 46°35' E 031°45'3 3.5
2016-Aug-26 03:31N 46°35' E 031°50'3 3.4
2016-Aug-26 02:33N 46°34' E 031°55'3 3.3
2016-Aug-26 01:33N 46°33' E 031°59'  
2016-Aug-22 18:31N 46°36' E 032°35'11 3.7
2016-Aug-22 15:27N 46°33' E 032°19'4 4.1
2016-Aug-22 14:32N 46°33' E 032°14'5 4.9
2016-Aug-22 13:33N 46°32' E 032°07'5 4.8
2016-Aug-22 12:33N 46°33' E 032°00'5 4.8
2016-Aug-22 11:33N 46°34' E 031°53'5 4.9
2016-Aug-22 10:33N 46°36' E 031°46'5 5.0
2016-Aug-22 09:32N 46°35' E 031°39'3 0.7
2016-Aug-22 05:34N 46°36' E 031°35'4 4.3
2016-Aug-22 04:33N 46°36' E 031°29'5 5.2
2016-Aug-22 03:32N 46°35' E 031°21'3 3.4
2016-Aug-22 02:31N 46°34' E 031°16'0 0.0
2016-Aug-22 01:34N 46°34' E 031°16'1 0.8
2016-Aug-22 00:32N 46°34' E 031°17'4 3.6
2016-Aug-21 23:31N 46°35' E 031°22'7 3.6
2016-Aug-21 21:33N 46°35' E 031°33'3 0.2
2016-Aug-21 05:21N 46°37' E 031°35'0 0.1
2016-Aug-21 04:33N 46°37' E 031°35'0 0.0
2016-Aug-21 02:33N 46°37' E 031°35'3 3.2
2016-Aug-21 01:27N 46°35' E 031°31'4 4.2
2016-Aug-21 00:33N 46°35' E 031°25'5 5.3
2016-Aug-20 23:33N 46°35' E 031°17'12 0.7
2016-Aug-20 05:32N 46°36' E 031°35'0 0.0
2016-Aug-20 04:32N 46°36' E 031°35'0 0.1
2016-Aug-20 03:32N 46°36' E 031°35'1 0.5
2016-Aug-20 02:24N 46°36' E 031°35'0 0.0
2016-Aug-20 01:33N 46°36' E 031°35'0 0.0
2016-Aug-20 00:30N 46°36' E 031°35'0 0.0
2016-Aug-19 23:33N 46°36' E 031°35'7 3.3
2016-Aug-19 21:29N 46°35' E 031°25'  

Dump ship's entire track history